createdAt,value
2019-04-07T00:00:12.434Z,101301.33
2019-04-07T00:02:43.071Z,101300.72
2019-04-07T00:05:14.904Z,101300.10
2019-04-07T00:07:45.684Z,101300.54
2019-04-07T00:10:16.672Z,101305.27
2019-04-07T00:12:47.734Z,101304.94
2019-04-07T00:15:19.069Z,101300.98
2019-04-07T00:17:50.565Z,101296.47
2019-04-07T00:20:23.639Z,101293.92
2019-04-07T00:22:55.127Z,101297.36
2019-04-07T00:25:25.888Z,101300.22
2019-04-07T00:27:57.490Z,101300.13
2019-04-07T00:30:29.442Z,101298.12
2019-04-07T00:33:00.827Z,101298.80
2019-04-07T00:35:33.275Z,101295.86
2019-04-07T00:38:04.843Z,101291.24
2019-04-07T00:40:36.240Z,101296.39
2019-04-07T00:43:06.896Z,101289.33
2019-04-07T00:45:37.956Z,101287.80
2019-04-07T00:48:09.068Z,101291.09
2019-04-07T00:50:40.522Z,101285.41
2019-04-07T00:53:11.527Z,101287.16
2019-04-07T00:55:42.610Z,101287.00
2019-04-07T00:58:13.735Z,101285.24
2019-04-07T01:00:44.641Z,101293.41
2019-04-07T01:03:15.684Z,101285.48
2019-04-07T01:05:46.774Z,101285.70
2019-04-07T01:08:17.997Z,101276.69
2019-04-07T01:10:49.102Z,101282.31
2019-04-07T01:13:20.115Z,101277.48
2019-04-07T01:15:51.092Z,101281.75
2019-04-07T01:18:22.147Z,101282.95
2019-04-07T01:20:53.089Z,101281.03
2019-04-07T01:23:24.150Z,101283.19
2019-04-07T01:25:55.904Z,101288.73
2019-04-07T01:28:27.447Z,101281.89
2019-04-07T01:30:59.497Z,101275.73
2019-04-07T01:33:30.541Z,101276.03
2019-04-07T01:36:02.070Z,101266.61
2019-04-07T01:38:33.295Z,101268.76
2019-04-07T01:41:12.149Z,101263.72
2019-04-07T01:43:48.175Z,101268.95
2019-04-07T01:46:26.429Z,101274.41
2019-04-07T01:49:15.816Z,101275.22
2019-04-07T01:51:51.850Z,101277.41
2019-04-07T01:54:40.392Z,101275.73
2019-04-07T01:57:21.596Z,101278.40
2019-04-07T02:00:00.775Z,101276.86
2019-04-07T02:02:36.681Z,101276.98
2019-04-07T02:05:12.362Z,101272.64
2019-04-07T02:07:54.150Z,101272.30
2019-04-07T02:10:27.423Z,101271.53
2019-04-07T02:13:06.113Z,101282.07
2019-04-07T02:15:42.149Z,101277.56
2019-04-07T02:18:14.804Z,101279.33
2019-04-07T02:20:59.011Z,101279.44
2019-04-07T02:23:47.190Z,101275.70
2019-04-07T02:26:39.011Z,101279.07
2019-04-07T02:29:11.720Z,101280.38
2019-04-07T02:31:46.204Z,101271.84
2019-04-07T02:34:19.668Z,101277.27
2019-04-07T02:37:04.769Z,101279.58
2019-04-07T02:39:49.180Z,101275.23
2019-04-07T02:42:38.358Z,101271.98
2019-04-07T02:45:18.096Z,101283.23
2019-04-07T02:47:53.513Z,101264.34
2019-04-07T02:50:28.378Z,101265.38
2019-04-07T02:53:01.613Z,101266.82
2019-04-07T02:55:37.477Z,101265.50
2019-04-07T02:58:10.361Z,101272.36
2019-04-07T03:00:43.242Z,101268.77
2019-04-07T03:03:34.391Z,101272.17
2019-04-07T03:06:10.104Z,101263.89
2019-04-07T03:08:49.220Z,101260.03
2019-04-07T03:11:27.739Z,101266.88
2019-04-07T03:14:03.747Z,101273.13
2019-04-07T03:16:53.044Z,101280.58
2019-04-07T03:19:28.690Z,101275.70
2019-04-07T03:22:13.380Z,101275.88
2019-04-07T03:24:46.072Z,101277.77
2019-04-07T03:27:36.078Z,101271.69
2019-04-07T03:30:09.468Z,101283.66
2019-04-07T03:33:01.115Z,101282.94
2019-04-07T03:35:34.353Z,101283.16
2019-04-07T03:38:25.075Z,101284.95
2019-04-07T03:40:59.022Z,101285.50
2019-04-07T03:43:48.087Z,101287.71
2019-04-07T03:46:21.579Z,101300.74
2019-04-07T03:49:06.018Z,101293.31
2019-04-07T03:51:41.889Z,101290.46
2019-04-07T03:54:18.346Z,101289.12
2019-04-07T03:56:56.927Z,101293.81
2019-04-07T03:59:36.457Z,101295.31
2019-04-07T04:02:26.321Z,101296.06
2019-04-07T04:04:59.626Z,101295.59
2019-04-07T04:07:38.726Z,101293.25
2019-04-07T04:10:11.685Z,101292.84
2019-04-07T04:12:56.618Z,101300.41
2019-04-07T04:15:29.820Z,101296.38
2019-04-07T04:18:01.200Z,101302.36
2019-04-07T04:20:32.349Z,101303.19
2019-04-07T04:23:03.984Z,101301.48
2019-04-07T04:25:35.045Z,101296.16
2019-04-07T04:28:06.616Z,101297.87
2019-04-07T04:30:37.577Z,101303.08
2019-04-07T04:33:10.310Z,101305.50
2019-04-07T04:35:41.435Z,101300.67
2019-04-07T04:38:12.477Z,101304.20
2019-04-07T04:40:44.076Z,101298.98
2019-04-07T04:43:15.593Z,101296.51
2019-04-07T04:45:46.378Z,101306.25
2019-04-07T04:48:17.464Z,101304.16
2019-04-07T04:50:49.157Z,101302.35
2019-04-07T04:53:20.074Z,101297.61
2019-04-07T04:55:51.506Z,101299.06
2019-04-07T04:58:22.904Z,101289.26
2019-04-07T05:00:53.995Z,101288.98
2019-04-07T05:03:24.987Z,101293.09
2019-04-07T05:05:56.266Z,101298.45
2019-04-07T05:08:27.267Z,101301.28
2019-04-07T05:10:58.825Z,101295.55
2019-04-07T05:13:29.697Z,101306.39
2019-04-07T05:16:00.583Z,101300.55
2019-04-07T05:18:32.307Z,101301.52
2019-04-07T05:21:03.390Z,101300.86
2019-04-07T05:23:34.846Z,101298.67
2019-04-07T05:26:06.027Z,101295.70
2019-04-07T05:28:37.955Z,101307.46
2019-04-07T05:31:09.778Z,101301.05
2019-04-07T05:33:42.041Z,101294.25
2019-04-07T05:36:13.008Z,101300.19
2019-04-07T05:38:44.566Z,101296.62
2019-04-07T05:41:15.708Z,101301.48
2019-04-07T05:43:47.025Z,101301.27
2019-04-07T05:46:17.882Z,101304.81
2019-04-07T05:48:50.492Z,101306.20
2019-04-07T05:51:22.049Z,101314.94
2019-04-07T05:53:52.804Z,101320.96
2019-04-07T05:56:28.090Z,101317.81
2019-04-07T05:58:56.133Z,101321.44
2019-04-07T06:01:26.991Z,101319.76
2019-04-07T06:03:57.969Z,101318.70
2019-04-07T06:06:29.033Z,101318.52
2019-04-07T06:08:59.993Z,101315.42
2019-04-07T06:11:32.979Z,101312.45
2019-04-07T06:14:03.231Z,101316.65
2019-04-07T06:16:34.396Z,101309.36
2019-04-07T06:19:07.874Z,101317.66
2019-04-07T06:21:37.877Z,101307.70
2019-04-07T06:24:08.976Z,101311.09
2019-04-07T06:26:42.108Z,101308.92
2019-04-07T06:29:12.341Z,101311.09
2019-04-07T06:31:43.725Z,101319.45
2019-04-07T06:34:16.159Z,101315.28
2019-04-07T06:36:51.643Z,101317.42
2019-04-07T06:39:20.118Z,101314.89
2019-04-07T06:41:51.278Z,101319.95
2019-04-07T06:44:23.491Z,101327.80
2019-04-07T06:46:59.877Z,101322.20
2019-04-07T06:49:33.782Z,101330.81
2019-04-07T06:52:21.765Z,101327.75
2019-04-07T06:55:00.519Z,101319.80
2019-04-07T06:57:37.520Z,101322.88
2019-04-07T07:00:26.038Z,101321.14
2019-04-07T07:02:59.643Z,101323.75
2019-04-07T07:05:49.504Z,101315.41
2019-04-07T07:08:45.857Z,101319.61
2019-04-07T07:11:32.374Z,101312.53
2019-04-07T07:14:14.350Z,101304.83
2019-04-07T07:17:00.381Z,101303.31
2019-04-07T07:19:42.286Z,101293.45
2019-04-07T07:22:16.628Z,101290.47
2019-04-07T07:24:47.785Z,101292.07
2019-04-07T07:27:18.511Z,101283.56
2019-04-07T07:29:51.922Z,101285.05
2019-04-07T07:32:22.577Z,101288.41
2019-04-07T07:34:55.207Z,101290.36
2019-04-07T07:37:26.907Z,101289.27
2019-04-07T07:39:57.703Z,101291.43
2019-04-07T07:42:28.954Z,101289.15
2019-04-07T07:44:59.811Z,101278.84
2019-04-07T07:47:31.353Z,101285.31
2019-04-07T07:50:04.965Z,101281.77
2019-04-07T07:52:35.118Z,101278.72
2019-04-07T07:55:07.544Z,101272.79
2019-04-07T07:57:38.603Z,101279.61
2019-04-07T08:00:10.316Z,101281.74
2019-04-07T08:02:41.056Z,101291.16
2019-04-07T08:05:12.439Z,101283.27
2019-04-07T08:07:45.738Z,101280.61
2019-04-07T08:10:17.061Z,101275.89
2019-04-07T08:12:49.479Z,101289.80
2019-04-07T08:15:22.834Z,101278.88
2019-04-07T08:17:53.130Z,101284.77
2019-04-07T08:20:24.265Z,101283.45
2019-04-07T08:22:55.129Z,101279.88
2019-04-07T08:25:26.203Z,101280.34
2019-04-07T08:27:57.440Z,101271.02
2019-04-07T08:30:29.140Z,101269.56
2019-04-07T08:33:01.294Z,101257.44
2019-04-07T08:35:38.223Z,101258.75
2019-04-07T08:38:06.705Z,101261.59
2019-04-07T08:40:39.060Z,101248.45
2019-04-07T08:43:09.969Z,101254.97
2019-04-07T08:45:41.431Z,101245.45
2019-04-07T08:48:12.382Z,101249.16
2019-04-07T08:50:43.487Z,101247.27
2019-04-07T08:53:14.827Z,101237.13
2019-04-07T08:55:48.552Z,101243.93
2019-04-07T08:58:25.719Z,101236.25
2019-04-07T09:00:55.914Z,101241.57
2019-04-07T09:03:27.030Z,101247.50
2019-04-07T09:05:58.533Z,101238.41
2019-04-07T09:08:29.603Z,101235.19
2019-04-07T09:11:02.169Z,101232.59
2019-04-07T09:13:34.147Z,101232.58
2019-04-07T09:16:17.363Z,101229.91
2019-04-07T09:19:08.336Z,101220.37
2019-04-07T09:21:56.879Z,101216.94
2019-04-07T09:24:33.429Z,101212.34
2019-04-07T09:27:09.085Z,101212.86
2019-04-07T09:29:58.902Z,101210.28
2019-04-07T09:32:31.149Z,101208.86
2019-04-07T09:35:04.763Z,101208.44
2019-04-07T09:37:37.831Z,101209.27
2019-04-07T09:40:16.398Z,101205.41
2019-04-07T09:43:04.185Z,101210.15
2019-04-07T09:45:39.375Z,101212.08
2019-04-07T09:48:13.817Z,101201.46
2019-04-07T09:50:49.590Z,101201.03
2019-04-07T09:53:22.971Z,101201.36
2019-04-07T09:56:05.747Z,101194.48
2019-04-07T09:58:54.759Z,101201.70
2019-04-07T10:01:28.751Z,101187.73
2019-04-07T10:04:01.315Z,101192.86
2019-04-07T10:06:39.824Z,101189.23
2019-04-07T10:09:21.775Z,101184.97
2019-04-07T10:12:00.457Z,101178.77
2019-04-07T10:14:48.788Z,101171.92
2019-04-07T10:17:22.169Z,101163.65
2019-04-07T10:20:06.778Z,101167.53
2019-04-07T10:22:39.571Z,101176.22
2019-04-07T10:25:15.540Z,101167.48
2019-04-07T10:27:50.987Z,101151.80
2019-04-07T10:30:42.018Z,101162.91
2019-04-07T10:33:31.607Z,101159.49
2019-04-07T10:36:22.861Z,101170.34
2019-04-07T10:39:07.264Z,101154.84
2019-04-07T10:53:19.525Z,101134.66
2019-04-07T10:56:05.575Z,101140.19
2019-04-07T10:58:43.950Z,101135.80
2019-04-07T11:01:36.349Z,101135.48
2019-04-07T11:04:09.496Z,101135.25
2019-04-07T11:06:48.322Z,101122.55
2019-04-07T11:09:36.875Z,101126.77
2019-04-07T11:12:19.886Z,101129.08
2019-04-07T11:14:59.031Z,101124.57
2019-04-07T11:17:47.802Z,101120.58
2019-04-07T11:20:20.529Z,101127.58
2019-04-07T11:22:58.916Z,101122.88
2019-04-07T11:25:34.679Z,101117.31
2019-04-07T11:28:24.225Z,101117.20
2019-04-07T11:30:59.200Z,101114.05
2019-04-07T11:33:47.857Z,101107.55
2019-04-07T11:36:24.389Z,101107.97
2019-04-07T11:39:13.464Z,101097.46
2019-04-07T11:41:57.385Z,101095.92
2019-04-07T11:44:35.711Z,101090.64
2019-04-07T11:47:08.835Z,101093.80
2019-04-07T11:49:42.841Z,101083.72
2019-04-07T11:52:31.039Z,101078.86
2019-04-07T11:55:03.535Z,101072.50
2019-04-07T11:57:43.293Z,101077.11
2019-04-07T12:00:30.042Z,101074.97
2019-04-07T12:03:19.207Z,101070.43
2019-04-07T12:05:52.266Z,101069.60
2019-04-07T12:08:42.862Z,101072.59
2019-04-07T12:11:18.220Z,101067.58
2019-04-07T12:14:07.371Z,101061.75
2019-04-07T12:16:57.974Z,101063.36
2019-04-07T12:19:32.227Z,101064.12
2019-04-07T12:22:14.314Z,101051.02
2019-04-07T12:24:57.493Z,101047.91
2019-04-07T12:27:27.094Z,101043.87
2019-04-07T12:30:16.493Z,101043.76
2019-04-07T12:32:51.758Z,101042.31
2019-04-07T12:35:36.869Z,101043.77
2019-04-07T12:38:21.414Z,101033.40
2019-04-07T12:41:04.053Z,101040.13
2019-04-07T12:43:49.199Z,101035.38
2019-04-07T12:46:36.504Z,101035.97
2019-04-07T12:49:21.192Z,101034.25
2019-04-07T12:52:10.166Z,101028.66
2019-04-07T12:54:48.676Z,101024.05
2019-04-07T12:57:24.224Z,101020.37
2019-04-07T13:00:02.576Z,101014.34
2019-04-07T13:02:38.230Z,101020.13
2019-04-07T13:05:13.903Z,101017.23
2019-04-07T13:07:51.369Z,101011.64
2019-04-07T13:31:14.553Z,100995.80
2019-04-07T13:33:59.547Z,100994.61
2019-04-07T13:36:50.983Z,100998.59
2019-04-07T13:39:22.692Z,100998.98
2019-04-07T13:42:05.250Z,100997.20
2019-04-07T13:44:55.847Z,101001.22
2019-04-07T13:47:28.758Z,101004.28
2019-04-07T13:50:17.970Z,100994.49
2019-04-07T13:52:54.161Z,101004.72
2019-04-07T13:55:24.463Z,101002.38
2019-04-07T13:58:13.958Z,101006.42
2019-04-07T14:01:02.026Z,100999.02
2019-04-07T14:03:35.561Z,100997.01
2019-04-07T14:06:20.565Z,100996.54
2019-04-07T14:08:53.070Z,100994.45
2019-04-07T14:11:32.766Z,100995.69
2019-04-07T14:14:05.688Z,100999.44
2019-04-07T14:16:54.562Z,101003.91
2019-04-07T14:19:37.076Z,100990.83
2019-04-07T14:22:33.203Z,100995.86
2019-04-07T14:25:25.660Z,100996.76
2019-04-07T14:28:13.381Z,100989.03
2019-04-07T14:30:45.926Z,100992.56
2019-04-07T14:33:34.629Z,100994.77
2019-04-07T14:36:12.879Z,100995.09
2019-04-07T14:38:45.572Z,100987.80
2019-04-07T14:41:21.412Z,100988.37
2019-04-07T14:43:59.771Z,100991.54
2019-04-07T14:46:42.765Z,100986.86
2019-04-07T14:49:17.416Z,100990.31
2019-04-07T14:51:57.033Z,100985.33
2019-04-07T14:54:29.532Z,100991.08
2019-04-07T14:57:11.652Z,100993.32
2019-04-07T15:00:01.893Z,100991.06
2019-04-07T15:02:33.466Z,100983.55
2019-04-07T15:05:20.507Z,100994.13
2019-04-07T15:08:07.219Z,100995.07
2019-04-07T15:10:39.852Z,100994.42
2019-04-07T15:13:17.113Z,100994.77
2019-04-07T15:15:50.185Z,100996.91
2019-04-07T15:18:21.422Z,101002.72
2019-04-07T15:20:57.305Z,100998.69
2019-04-07T15:23:31.720Z,101008.11
2019-04-07T15:26:02.173Z,100997.02
2019-04-07T15:28:34.041Z,101001.53
2019-04-07T15:31:04.971Z,101006.17
2019-04-07T15:33:36.032Z,101004.89
2019-04-07T15:36:09.137Z,101011.03
2019-04-07T15:38:41.422Z,101009.63
2019-04-07T15:41:15.294Z,101007.16
2019-04-07T15:43:54.810Z,101003.19
2019-04-07T15:46:25.691Z,101010.08
2019-04-07T15:48:57.121Z,101013.17
2019-04-07T15:51:28.318Z,101012.02
2019-04-07T15:53:59.568Z,101011.89
2019-04-07T15:56:30.403Z,101008.23
2019-04-07T15:59:02.370Z,101007.37
2019-04-07T16:01:33.685Z,101008.75
2019-04-07T16:04:06.120Z,101009.17
2019-04-07T16:06:37.178Z,101015.95
2019-04-07T16:09:14.099Z,101014.97
2019-04-07T16:11:42.207Z,101017.19
2019-04-07T16:14:15.058Z,101018.95
2019-04-07T16:16:46.148Z,101019.31
2019-04-07T16:19:21.974Z,101020.53
2019-04-07T16:21:49.423Z,101023.13
2019-04-07T16:24:21.904Z,101027.39
2019-04-07T16:26:52.955Z,101019.90
2019-04-07T16:29:23.815Z,101023.00
2019-04-07T16:31:57.072Z,101030.47
2019-04-07T16:34:28.609Z,101023.36
2019-04-07T16:37:02.449Z,101028.27
2019-04-07T16:39:37.749Z,101026.23
2019-04-07T16:42:15.264Z,101035.62
2019-04-07T16:44:50.778Z,101034.92
2019-04-07T16:47:32.753Z,101037.89
2019-04-07T16:50:04.431Z,101036.82
2019-04-07T16:52:39.814Z,101036.44
2019-04-07T16:55:20.215Z,101038.53
2019-04-07T16:57:54.999Z,101047.66
2019-04-07T17:00:26.044Z,101051.33
2019-04-07T17:02:56.954Z,101048.50
2019-04-07T17:05:28.977Z,101051.38
2019-04-07T17:07:59.654Z,101055.10
2019-04-07T17:10:33.869Z,101054.86
2019-04-07T17:13:13.882Z,101056.41
2019-04-07T17:15:39.596Z,101063.11
2019-04-07T17:18:11.182Z,101059.00
2019-04-07T17:20:42.358Z,101062.53
2019-04-07T17:23:13.381Z,101063.96
2019-04-07T17:25:45.124Z,101065.51
2019-04-07T17:28:16.297Z,101070.51
2019-04-07T17:30:50.648Z,101070.67
2019-04-07T17:33:23.347Z,101063.27
2019-04-07T17:35:55.356Z,101069.38
2019-04-07T17:38:36.930Z,101074.47
2019-04-07T17:41:09.119Z,101079.62
2019-04-07T17:43:59.777Z,101077.59
2019-04-07T17:46:34.843Z,101066.11
2019-04-07T17:49:16.713Z,101074.86
2019-04-07T17:52:09.945Z,101073.83
2019-04-07T17:54:46.297Z,101083.20
2019-04-07T17:57:27.788Z,101079.14
2019-04-07T18:00:00.353Z,101074.59
2019-04-07T18:02:34.851Z,101074.05
2019-04-07T18:05:14.845Z,101080.98
2019-04-07T18:07:56.518Z,101074.03
2019-04-07T18:10:29.745Z,101076.59
2019-04-07T18:13:02.993Z,101078.89
2019-04-07T18:15:41.545Z,101078.89
2019-04-07T18:18:30.416Z,101077.33
2019-04-07T18:21:03.072Z,101078.48
2019-04-07T18:23:38.531Z,101072.80
2019-04-07T18:26:23.266Z,101073.20
2019-04-07T18:28:58.578Z,101074.23
2019-04-07T18:31:35.055Z,101078.91
2019-04-07T18:34:26.992Z,101082.19
2019-04-07T18:37:13.539Z,101082.09
2019-04-07T18:39:52.345Z,101080.03
2019-04-07T18:42:33.464Z,101081.28
2019-04-07T18:45:12.528Z,101072.52
2019-04-07T18:47:44.379Z,101076.67
2019-04-07T18:50:36.942Z,101076.18
2019-04-07T18:53:10.306Z,101083.39
2019-04-07T18:55:48.876Z,101075.62
2019-04-07T18:58:24.528Z,101077.89
2019-04-07T19:01:00.765Z,101076.37
2019-04-07T19:03:41.835Z,101068.50
2019-04-07T19:06:26.464Z,101067.21
2019-04-07T19:09:05.094Z,101072.42
2019-04-07T19:12:05.111Z,101069.23
2019-04-07T19:14:46.647Z,101070.26
2019-04-07T19:17:30.340Z,101068.88
2019-04-07T19:20:19.270Z,101065.06
2019-04-07T19:23:01.207Z,101071.49
2019-04-07T19:25:52.368Z,101070.30
2019-04-07T19:28:34.220Z,101064.30
2019-04-07T19:31:10.775Z,101064.64
2019-04-07T19:33:56.662Z,101064.42
2019-04-07T19:36:44.374Z,101061.73
2019-04-07T19:39:21.433Z,101063.72
2019-04-07T19:41:53.070Z,101064.56
2019-04-07T19:44:38.375Z,101060.08
2019-04-07T19:47:18.293Z,101061.55
2019-04-07T19:49:53.119Z,101066.72
2019-04-07T19:52:41.803Z,101065.50
2019-04-07T19:55:22.770Z,101068.36
2019-04-07T19:57:52.635Z,101064.41
2019-04-07T20:00:37.316Z,101066.39
2019-04-07T20:03:26.364Z,101064.55
2019-04-07T20:05:59.049Z,101062.94
2019-04-07T20:08:37.572Z,101066.59
2019-04-07T20:11:10.152Z,101065.41
2019-04-07T20:13:42.551Z,101068.27
2019-04-07T20:16:16.345Z,101070.73
2019-04-07T20:18:49.563Z,101070.21
2019-04-07T20:21:33.957Z,101063.78
2019-04-07T20:24:01.410Z,101074.99
2019-04-07T20:26:52.565Z,101074.61
2019-04-07T20:29:42.646Z,101074.47
2019-04-07T20:32:13.164Z,101068.38
2019-04-07T20:35:02.204Z,101069.13
2019-04-07T20:37:34.918Z,101072.98
2019-04-07T20:40:22.132Z,101070.03
2019-04-07T20:42:57.089Z,101063.52
2019-04-07T20:45:28.920Z,101056.31
2019-04-07T20:48:03.088Z,101069.02
2019-04-07T20:50:37.727Z,101068.82
2019-04-07T20:53:16.579Z,101061.12
2019-04-07T20:55:47.626Z,101058.41
2019-04-07T20:58:43.796Z,101056.08
2019-04-07T21:01:11.375Z,101053.74
2019-04-07T21:03:49.298Z,101044.73
2019-04-07T21:06:20.200Z,101054.06
2019-04-07T21:09:09.921Z,101057.19
2019-04-07T21:11:45.116Z,101070.52
2019-04-07T21:14:17.161Z,101062.01
2019-04-07T21:17:01.020Z,101059.23
2019-04-07T21:19:36.510Z,101060.72
2019-04-07T21:22:16.878Z,101056.37
2019-04-07T21:25:01.117Z,101059.41
2019-04-07T21:27:42.901Z,101056.27
2019-04-07T21:30:16.375Z,101054.20
2019-04-07T21:32:51.648Z,101056.84
2019-04-07T21:35:23.361Z,101049.64
2019-04-07T21:38:16.190Z,101051.04
2019-04-07T21:41:04.364Z,101053.92
2019-04-07T21:43:55.447Z,101053.23
2019-04-07T21:46:42.949Z,101058.91
2019-04-07T21:49:15.286Z,101046.45
2019-04-07T21:51:48.330Z,101048.95
2019-04-07T21:54:23.423Z,101048.98
2019-04-07T21:57:00.334Z,101041.48
2019-04-07T21:59:35.794Z,101045.30
2019-04-07T22:02:11.681Z,101040.86
2019-04-07T22:04:42.497Z,101041.00
2019-04-07T22:07:15.359Z,101038.66
2019-04-07T22:09:50.082Z,101037.95
2019-04-07T22:12:20.383Z,101039.70
2019-04-07T22:14:51.053Z,101029.52
2019-04-07T22:17:22.012Z,101035.30
2019-04-07T22:19:53.148Z,101042.30
2019-04-07T22:22:26.602Z,101030.77
2019-04-07T22:24:56.521Z,101034.81
2019-04-07T22:27:28.676Z,101029.61
2019-04-07T22:29:59.985Z,101030.17
2019-04-07T22:32:31.642Z,101029.64
2019-04-07T22:35:04.796Z,101027.20
2019-04-07T22:37:35.626Z,101020.84
2019-04-07T22:40:21.385Z,101023.75
2019-04-07T22:42:52.456Z,101029.00
2019-04-07T22:45:26.423Z,101023.73
2019-04-07T22:47:55.789Z,101016.70
2019-04-07T22:50:27.262Z,101020.37
2019-04-07T22:52:58.219Z,101015.45
2019-04-07T22:55:29.210Z,101020.02
2019-04-07T22:58:00.560Z,101018.48
2019-04-07T23:00:31.499Z,101024.09
2019-04-07T23:03:02.475Z,101025.06
2019-04-07T23:05:33.917Z,101012.94
2019-04-07T23:08:04.889Z,101016.87
2019-04-07T23:10:36.069Z,101017.52
2019-04-07T23:13:07.706Z,101018.86
2019-04-07T23:15:44.298Z,101010.95
2019-04-07T23:18:11.614Z,101018.19
2019-04-07T23:20:42.716Z,101017.78
2019-04-07T23:23:14.431Z,101016.34
2019-04-07T23:25:46.081Z,101016.34
2019-04-07T23:28:17.076Z,101017.08
2019-04-07T23:30:48.132Z,101016.33
2019-04-07T23:33:19.071Z,101022.55
2019-04-07T23:35:49.944Z,101017.09
2019-04-07T23:38:21.889Z,101014.95
2019-04-07T23:40:53.479Z,101007.70
2019-04-07T23:43:24.974Z,101012.93
2019-04-07T23:45:55.988Z,101010.08
2019-04-07T23:48:27.090Z,101000.05
2019-04-07T23:50:58.240Z,101000.52
2019-04-07T23:54:07.208Z,101000.95
2019-04-07T23:56:39.339Z,100999.43
2019-04-07T23:59:12.056Z,100996.99
